Time;durP1;ratioP1;P1;durP2;ratioP2;P2;SDS_P1;SDS_P2;PMS_P1;PMS_P2;Temp;Humidity;BMP_temperature;BMP_pressure;BME280_temperature;BME280_humidity;BME280_pressure;Samples;Min_cycle;Max_cycle;Signal;HPM_P1;HPM_P2
2024/04/04 00:00:42;;;;;;;0.00;0.00;;;;;;;-139.19;100.00;56970.53;5072373;28;20103;-63
2024/04/04 00:03:07;;;;;;;0.30;0.30;;;;;;;-139.19;100.00;56970.53;5071844;28;20060;-63
2024/04/04 00:05:33;;;;;;;0.17;0.10;;;;;;;-139.19;100.00;56970.53;5070874;28;20033;-63
2024/04/04 00:07:59;;;;;;;1.65;0.38;;;;;;;-139.19;100.00;56970.53;5071906;28;20091;-63
2024/04/04 00:10:24;;;;;;;0.10;0.10;;;;;;;-139.19;100.00;56970.53;5064506;28;20103;-63
2024/04/04 00:12:50;;;;;;;0.00;0.00;;;;;;;-139.19;100.00;56970.53;5072242;28;20155;-63
2024/04/04 00:15:15;;;;;;;0.00;0.00;;;;;;;-139.19;100.00;56970.53;5062954;28;20096;-63
2024/04/04 00:17:43;;;;;;;1.20;0.28;;;;;;;-139.19;100.00;56970.53;5052698;28;20025;-63
2024/04/04 00:20:14;;;;;;;0.00;0.00;;;;;;;-139.19;100.00;56970.53;5052631;28;20025;-63
2024/04/04 00:22:40;;;;;;;0.10;0.10;;;;;;;-139.19;100.00;56970.53;5052594;28;20471;-63
2024/04/04 00:25:05;;;;;;;0.00;0.00;;;;;;;-139.19;100.00;56970.53;5053797;28;20071;-63
2024/04/04 00:27:31;;;;;;;0.00;0.00;;;;;;;-139.19;100.00;56970.53;5052711;28;20067;-63
2024/04/04 00:29:56;;;;;;;0.00;0.00;;;;;;;-139.19;100.00;56970.53;5052658;28;20032;-63
2024/04/04 00:32:21;;;;;;;0.00;0.00;;;;;;;-139.19;100.00;56970.53;5052476;28;20040;-63
2024/04/04 00:34:47;;;;;;;0.00;0.00;;;;;;;-139.19;100.00;56970.53;5052558;28;20067;-63
2024/04/04 00:37:12;;;;;;;0.00;0.00;;;;;;;-139.19;100.00;56970.53;5052567;28;20102;-63
2024/04/04 00:39:37;;;;;;;0.00;0.00;;;;;;;-139.19;100.00;56970.53;5052631;28;20426;-63
2024/04/04 00:42:04;;;;;;;0.00;0.00;;;;;;;-139.19;100.00;56970.53;5052378;28;20473;-63
2024/04/04 00:44:29;;;;;;;0.00;0.00;;;;;;;-139.19;100.00;56970.53;5052803;28;20025;-63
2024/04/04 00:46:55;;;;;;;0.00;0.00;;;;;;;-139.19;100.00;56970.53;5052770;28;20021;-63
2024/04/04 00:49:21;;;;;;;0.00;0.00;;;;;;;-139.19;100.00;56970.53;5052714;28;20021;-63
2024/04/04 00:51:47;;;;;;;0.00;0.00;;;;;;;-139.19;100.00;56970.53;5060122;28;20024;-63
2024/04/04 00:54:13;;;;;;;0.10;0.10;;;;;;;-139.19;100.00;56970.53;5075174;28;20389;-63
2024/04/04 00:56:38;;;;;;;0.10;0.10;;;;;;;-139.19;100.00;56970.53;5075450;28;20024;-63
2024/04/04 00:59:05;;;;;;;0.15;0.10;;;;;;;-139.19;100.00;56970.53;5075461;28;20028;-63
2024/04/04 01:01:31;;;;;;;0.00;0.00;;;;;;;-139.19;100.00;56970.53;5074999;28;20060;-63
2024/04/04 01:03:56;;;;;;;0.00;0.00;;;;;;;-139.19;100.00;56970.53;5075205;28;20072;-63
2024/04/04 01:06:31;;;;;;;0.00;0.00;;;;;;;-139.19;100.00;56970.53;5074562;28;20037;-63
2024/04/04 01:08:58;;;;;;;0.60;0.45;;;;;;;-139.19;100.00;56970.53;5075280;28;20024;-63
2024/04/04 01:11:23;;;;;;;0.00;0.00;;;;;;;-139.19;100.00;56970.53;5075164;28;20127;-63
2024/04/04 01:13:49;;;;;;;0.03;0.03;;;;;;;-139.19;100.00;56970.53;5074791;28;20040;-63
2024/04/04 01:16:14;;;;;;;0.10;0.10;;;;;;;-139.19;100.00;56970.53;5066759;28;20026;-63
2024/04/04 01:18:40;;;;;;;0.17;0.17;;;;;;;-139.19;100.00;56970.53;5057986;28;20032;-63
2024/04/04 01:21:06;;;;;;;0.00;0.00;;;;;;;-139.19;100.00;56970.53;5067010;28;20082;-63
2024/04/04 01:23:31;;;;;;;0.00;0.00;;;;;;;-139.19;100.00;56970.53;5075206;28;20039;-63
2024/04/04 01:25:57;;;;;;;0.00;0.00;;;;;;;-139.19;100.00;56970.53;5058642;28;20029;-63
2024/04/04 01:28:22;;;;;;;0.35;0.35;;;;;;;-139.19;100.00;56970.53;5062163;28;20056;-63
2024/04/04 01:30:47;;;;;;;2.05;0.30;;;;;;;-139.19;100.00;56970.53;5063212;28;20060;-63
2024/04/04 01:33:13;;;;;;;0.00;0.00;;;;;;;-139.19;100.00;56970.53;5055913;28;20039;-63
2024/04/04 01:35:38;;;;;;;1.45;0.57;;;;;;;-139.19;100.00;56970.53;5064714;28;20024;-63
2024/04/04 01:38:04;;;;;;;2.10;0.28;;;;;;;-139.19;100.00;56970.53;5055266;28;20036;-63
2024/04/04 01:40:29;;;;;;;0.30;0.25;;;;;;;-139.19;100.00;56970.53;5055074;28;20493;-63
2024/04/04 01:42:54;;;;;;;0.00;0.00;;;;;;;-139.19;100.00;56970.53;5055272;28;20029;-63
2024/04/04 01:45:20;;;;;;;0.10;0.10;;;;;;;-139.19;100.00;56970.53;5055078;28;20398;-63
2024/04/04 01:47:45;;;;;;;0.20;0.15;;;;;;;-139.19;100.00;56970.53;5054550;28;20025;-63
2024/04/04 01:50:11;;;;;;;0.52;0.15;;;;;;;-139.19;100.00;56970.53;5055132;28;20071;-63
2024/04/04 01:52:36;;;;;;;0.10;0.10;;;;;;;-139.19;100.00;56970.53;5054844;28;20115;-63
2024/04/04 01:55:01;;;;;;;6.05;0.47;;;;;;;-139.19;100.00;56970.53;5055016;28;20099;-63
2024/04/04 01:57:27;;;;;;;0.10;0.10;;;;;;;-139.19;100.00;56970.53;5039298;28;20037;-61
2024/04/04 01:59:52;;;;;;;0.00;0.00;;;;;;;-139.19;100.00;56970.53;5036500;28;20037;-62
2024/04/04 02:02:17;;;;;;;1.10;0.75;;;;;;;-139.19;100.00;56970.53;5034727;28;20047;-62
2024/04/04 02:04:44;;;;;;;0.00;0.00;;;;;;;-139.19;100.00;56970.53;5034934;28;20501;-62
2024/04/04 02:07:09;;;;;;;0.00;0.00;;;;;;;-139.19;100.00;56970.53;5067169;28;20036;-62
2024/04/04 02:09:36;;;;;;;0.00;0.00;;;;;;;-139.19;100.00;56970.53;5074828;28;20056;-62
2024/04/04 02:12:01;;;;;;;1.02;0.93;;;;;;;-139.19;100.00;56970.53;5070710;28;20493;-62
2024/04/04 02:14:27;;;;;;;0.10;0.10;;;;;;;-139.19;100.00;56970.53;5054558;28;20108;-62
2024/04/04 02:16:52;;;;;;;0.00;0.00;;;;;;;-139.19;100.00;56970.53;5054468;28;20036;-61
2024/04/04 02:19:17;;;;;;;0.10;0.10;;;;;;;-139.19;100.00;56970.53;5054452;28;20035;-62
2024/04/04 02:21:42;;;;;;;0.00;0.00;;;;;;;-139.19;100.00;56970.53;5054395;28;20029;-61
2024/04/04 02:24:08;;;;;;;0.10;0.10;;;;;;;-139.19;100.00;56970.53;5064273;28;20039;-61
2024/04/04 02:26:33;;;;;;;0.10;0.10;;;;;;;-139.19;100.00;56970.53;5074381;28;20039;-62
2024/04/04 02:28:59;;;;;;;0.20;0.10;;;;;;;-139.19;100.00;56970.53;5074296;28;20453;-62
2024/04/04 02:31:25;;;;;;;16.23;0.43;;;;;;;-139.19;100.00;56970.53;5074533;28;20421;-61
2024/04/04 02:33:50;;;;;;;0.00;0.00;;;;;;;-139.19;100.00;56970.53;5058473;28;20494;-61
2024/04/04 02:36:16;;;;;;;0.10;0.10;;;;;;;-139.19;100.00;56970.53;5054155;28;20127;-62
2024/04/04 02:38:41;;;;;;;4.28;0.85;;;;;;;-139.19;100.00;56970.53;5054090;28;20064;-62
2024/04/04 02:41:07;;;;;;;0.08;0.08;;;;;;;-139.19;100.00;56970.53;5054055;28;20052;-62
2024/04/04 02:43:33;;;;;;;0.00;0.00;;;;;;;-139.19;100.00;56970.53;5062377;28;20019;-62
2024/04/04 02:45:59;;;;;;;11.88;0.85;;;;;;;-139.19;100.00;56970.53;5073985;28;20036;-62
2024/04/04 02:48:25;;;;;;;0.10;0.10;;;;;;;-139.19;100.00;56970.53;5073877;28;20063;-62
2024/04/04 02:50:57;;;;;;;0.08;0.08;;;;;;;-139.19;100.00;56970.53;5073884;28;20056;-62
2024/04/04 02:53:23;;;;;;;0.00;0.00;;;;;;;-139.19;100.00;56970.53;5073320;28;20047;-61
2024/04/04 02:55:59;;;;;;;0.15;0.15;;;;;;;-139.19;100.00;56970.53;5073649;28;20042;-62
2024/04/04 02:58:25;;;;;;;0.98;0.47;;;;;;;-139.19;100.00;56970.53;5066347;28;20489;-61
2024/04/04 03:00:52;;;;;;;0.20;0.20;;;;;;;-139.19;100.00;56970.53;5053980;28;20365;-62
2024/04/04 03:03:17;;;;;;;0.00;0.00;;;;;;;-139.19;100.00;56970.53;5053550;28;20413;-62
2024/04/04 03:05:43;;;;;;;0.00;0.00;;;;;;;-139.19;100.00;56970.53;5053731;28;20041;-62
2024/04/04 03:08:09;;;;;;;0.00;0.00;;;;;;;-139.19;100.00;56970.53;5054214;28;20140;-62
2024/04/04 03:10:36;;;;;;;0.00;0.00;;;;;;;-139.19;100.00;56970.53;5073835;28;20040;-61
2024/04/04 03:13:03;;;;;;;0.00;0.00;;;;;;;-139.19;100.00;56970.53;5073716;28;20056;-61
2024/04/04 03:15:29;;;;;;;0.52;0.45;;;;;;;-139.19;100.00;56970.53;5073309;28;20491;-62
2024/04/04 03:17:55;;;;;;;0.00;0.00;;;;;;;-139.19;100.00;56970.53;5073565;28;20032;-62
2024/04/04 03:20:20;;;;;;;5.60;0.35;;;;;;;-139.19;100.00;56970.53;5057844;28;20028;-62
2024/04/04 03:22:46;;;;;;;0.10;0.10;;;;;;;-139.19;100.00;56970.53;5053412;28;20073;-62
2024/04/04 03:25:12;;;;;;;0.10;0.10;;;;;;;-139.19;100.00;56970.53;5053666;28;20425;-61
2024/04/04 03:27:37;;;;;;;0.63;0.57;;;;;;;-139.19;100.00;56970.53;5053376;28;20090;-62
2024/04/04 03:30:03;;;;;;;0.00;0.00;;;;;;;-139.19;100.00;56970.53;5061842;28;20016;-62
2024/04/04 03:32:28;;;;;;;0.00;0.00;;;;;;;-139.19;100.00;56970.53;5073318;28;20380;-62
2024/04/04 03:34:53;;;;;;;0.10;0.10;;;;;;;-139.19;100.00;56970.53;5073311;28;20032;-62
2024/04/04 03:37:19;;;;;;;1.35;0.13;;;;;;;-139.19;100.00;56970.53;5073359;28;20028;-62
2024/04/04 03:39:47;;;;;;;0.00;0.00;;;;;;;-139.19;100.00;56970.53;5070714;28;20032;-62
2024/04/04 03:42:12;;;;;;;1.23;0.50;;;;;;;-139.19;100.00;56970.53;5053283;28;20473;-62
2024/04/04 03:44:38;;;;;;;2.65;0.68;;;;;;;-139.19;100.00;56970.53;5053100;28;20035;-61
2024/04/04 03:47:03;;;;;;;0.15;0.15;;;;;;;-139.19;100.00;56970.53;5053370;28;20029;-61
2024/04/04 03:49:29;;;;;;;2.63;0.63;;;;;;;-139.19;100.00;56970.53;5053158;28;20488;-62
2024/04/04 03:51:54;;;;;;;0.40;0.35;;;;;;;-139.19;100.00;56970.53;5068772;28;20024;-61
2024/04/04 03:54:19;;;;;;;0.28;0.28;;;;;;;-139.19;100.00;56970.53;5073046;28;20137;-62
2024/04/04 03:56:45;;;;;;;2.35;1.08;;;;;;;-139.19;100.00;56970.53;5055867;28;20031;-61
2024/04/04 03:59:10;;;;;;;0.00;0.00;;;;;;;-139.19;100.00;56970.53;5052979;28;20071;-62
2024/04/04 04:01:35;;;;;;;0.00;0.00;;;;;;;-139.19;100.00;56970.53;5052923;28;20024;-62
2024/04/04 04:04:00;;;;;;;0.10;0.10;;;;;;;-139.19;100.00;56970.53;5052806;28;20099;-62
2024/04/04 04:06:26;;;;;;;0.20;0.20;;;;;;;-139.19;100.00;56970.53;5042408;28;20033;-62
2024/04/04 04:08:51;;;;;;;0.00;0.00;;;;;;;-139.19;100.00;56970.53;5033008;28;20033;-62
2024/04/04 04:11:16;;;;;;;0.00;0.00;;;;;;;-139.19;100.00;56970.53;5033113;28;20385;-62
2024/04/04 04:13:46;;;;;;;0.20;0.20;;;;;;;-139.19;100.00;56970.53;5033154;28;20474;-62
2024/04/04 04:16:11;;;;;;;0.00;0.00;;;;;;;-139.19;100.00;56970.53;5041369;28;20476;-63
2024/04/04 04:18:37;;;;;;;0.10;0.10;;;;;;;-139.19;100.00;56970.53;5072835;28;20037;-63
2024/04/04 04:21:19;;;;;;;0.00;0.00;;;;;;;-139.19;100.00;56970.53;5072806;28;20025;-63
2024/04/04 04:23:49;;;;;;;0.00;0.00;;;;;;;-139.19;100.00;56970.53;5073012;28;20067;-63
2024/04/04 04:26:15;;;;;;;0.43;0.35;;;;;;;-139.19;100.00;56970.53;5072571;28;20107;-63
2024/04/04 04:28:41;;;;;;;0.20;0.15;;;;;;;-139.19;100.00;56970.53;5076852;28;20120;-63
2024/04/04 04:31:22;;;;;;;0.00;0.00;;;;;;;-139.19;100.00;56970.53;5076771;28;20412;-63
2024/04/04 04:33:47;;;;;;;0.03;0.03;;;;;;;-139.19;100.00;56970.53;5076708;28;20024;-63
2024/04/04 04:36:13;;;;;;;0.00;0.00;;;;;;;-139.19;100.00;56970.53;5070166;28;20466;-63
2024/04/04 04:38:38;;;;;;;0.00;0.00;;;;;;;-139.19;100.00;56970.53;5055056;28;20048;-63
2024/04/04 04:41:04;;;;;;;0.17;0.15;;;;;;;-139.19;100.00;56970.53;5054839;28;20075;-63
2024/04/04 04:43:29;;;;;;;0.43;0.43;;;;;;;-139.19;100.00;56970.53;5038438;28;20016;-63
2024/04/04 04:45:55;;;;;;;0.35;0.17;;;;;;;-139.19;100.00;56970.53;5056233;28;20040;-63
2024/04/04 04:48:20;;;;;;;4.38;0.57;;;;;;;-139.19;100.00;56970.53;5055690;28;20021;-63
2024/04/04 04:50:46;;;;;;;0.00;0.00;;;;;;;-139.19;100.00;56970.53;5055806;28;20023;-63
2024/04/04 04:53:11;;;;;;;0.52;0.38;;;;;;;-139.19;100.00;56970.53;5056326;28;20057;-63
2024/04/04 04:55:37;;;;;;;0.00;0.00;;;;;;;-139.19;100.00;56970.53;5056139;28;20021;-63
2024/04/04 04:58:02;;;;;;;0.00;0.00;;;;;;;-139.19;100.00;56970.53;5056337;28;20362;-63
2024/04/04 05:00:27;;;;;;;0.00;0.00;;;;;;;-139.19;100.00;56970.53;5055913;28;20029;-63
2024/04/04 05:02:53;;;;;;;0.52;0.47;;;;;;;-139.19;100.00;56970.53;5055952;28;20111;-63
2024/04/04 05:05:19;;;;;;;0.00;0.00;;;;;;;-139.19;100.00;56970.53;5056157;28;20045;-63
2024/04/04 05:07:44;;;;;;;0.10;0.10;;;;;;;-139.19;100.00;56970.53;5056065;28;20504;-63
2024/04/04 05:10:10;;;;;;;0.05;0.05;;;;;;;-139.19;100.00;56970.53;5055856;28;20055;-63
2024/04/04 05:12:35;;;;;;;2.83;0.65;;;;;;;-139.19;100.00;56970.53;5055733;28;20104;-63
2024/04/04 05:15:01;;;;;;;0.00;0.00;;;;;;;-139.19;100.00;56970.53;5055852;28;20465;-63
2024/04/04 05:17:26;;;;;;;1.73;0.57;;;;;;;-139.19;100.00;56970.53;5055762;28;20036;-63
2024/04/04 05:19:52;;;;;;;0.28;0.28;;;;;;;-139.19;100.00;56970.53;5055964;28;20024;-63
2024/04/04 05:22:17;;;;;;;0.20;0.20;;;;;;;-139.19;100.00;56970.53;5055700;28;20385;-63
2024/04/04 05:24:42;;;;;;;2.03;0.70;;;;;;;-139.19;100.00;56970.53;5055605;28;20381;-64
2024/04/04 05:27:08;;;;;;;0.13;0.13;;;;;;;-139.19;100.00;56970.53;5055494;28;20036;-61
2024/04/04 05:29:33;;;;;;;0.35;0.35;;;;;;;-139.19;100.00;56970.53;5055774;28;20032;-61
2024/04/04 05:31:58;;;;;;;0.00;0.00;;;;;;;-139.19;100.00;56970.53;5055322;28;20120;-61
2024/04/04 05:34:26;;;;;;;0.03;0.03;;;;;;;-139.19;100.00;56970.53;5055701;28;20035;-62
2024/04/04 05:36:52;;;;;;;9.80;0.57;;;;;;;-139.19;100.00;56970.53;5055106;28;20025;-61
2024/04/04 05:39:17;;;;;;;0.00;0.00;;;;;;;-139.19;100.00;56970.53;5055439;28;20426;-61
2024/04/04 05:41:43;;;;;;;0.10;0.10;;;;;;;-139.19;100.00;56970.53;5055328;28;20032;-62
2024/04/04 05:44:08;;;;;;;0.10;0.10;;;;;;;-139.19;100.00;56970.53;5055176;28;20397;-61
2024/04/04 05:46:33;;;;;;;0.00;0.00;;;;;;;-139.19;100.00;56970.53;5055071;28;20105;-62
2024/04/04 05:48:59;;;;;;;0.08;0.08;;;;;;;-139.19;100.00;56970.53;5055206;28;20027;-62
2024/04/04 05:51:24;;;;;;;0.00;0.00;;;;;;;-139.19;100.00;56970.53;5055211;28;20116;-62
2024/04/04 05:53:50;;;;;;;0.10;0.10;;;;;;;-139.19;100.00;56970.53;5055009;28;20127;-61
2024/04/04 05:56:15;;;;;;;0.00;0.00;;;;;;;-139.19;100.00;56970.53;5055252;28;20021;-61
2024/04/04 05:58:41;;;;;;;9.55;0.85;;;;;;;-139.19;100.00;56970.53;5055006;28;20032;-61
2024/04/04 06:01:06;;;;;;;0.20;0.20;;;;;;;-139.19;100.00;56970.53;5055150;28;20032;-62
2024/04/04 06:03:32;;;;;;;0.20;0.20;;;;;;;-139.19;100.00;56970.53;5054721;28;20063;-61
2024/04/04 06:05:57;;;;;;;0.00;0.00;;;;;;;-139.19;100.00;56970.53;5055032;28;20021;-62
2024/04/04 06:08:22;;;;;;;0.65;0.38;;;;;;;-139.19;100.00;56970.53;5055028;28;20465;-61
2024/04/04 06:10:48;;;;;;;3.63;0.65;;;;;;;-139.19;100.00;56970.53;5054732;28;20033;-62
2024/04/04 06:13:13;;;;;;;0.10;0.10;;;;;;;-139.19;100.00;56970.53;5054587;28;20500;-62
2024/04/04 06:15:38;;;;;;;0.08;0.08;;;;;;;-139.19;100.00;56970.53;5054735;28;20025;-62
2024/04/04 06:18:04;;;;;;;0.00;0.00;;;;;;;-139.19;100.00;56970.53;5054633;28;20430;-61
2024/04/04 06:20:29;;;;;;;0.20;0.20;;;;;;;-139.19;100.00;56970.53;5054753;28;20104;-61
2024/04/04 06:22:55;;;;;;;0.10;0.10;;;;;;;-139.19;100.00;56970.53;5054470;28;20071;-62
2024/04/04 06:25:20;;;;;;;0.50;0.30;;;;;;;-139.19;100.00;56970.53;5054415;28;20024;-61
2024/04/04 06:27:46;;;;;;;0.10;0.10;;;;;;;-139.19;100.00;56970.53;5054420;28;20043;-62
2024/04/04 06:30:12;;;;;;;0.35;0.35;;;;;;;-139.19;100.00;56970.53;5054373;28;20031;-61
2024/04/04 06:32:37;;;;;;;1.45;0.80;;;;;;;-139.19;100.00;56970.53;5054211;28;20029;-61
2024/04/04 06:35:03;;;;;;;0.00;0.00;;;;;;;-139.19;100.00;56970.53;5054168;28;20025;-61
2024/04/04 06:37:29;;;;;;;0.00;0.00;;;;;;;-139.19;100.00;56970.53;5054537;28;20108;-63
2024/04/04 06:39:54;;;;;;;1.00;0.47;;;;;;;-139.19;100.00;56970.53;5054002;28;20067;-63
2024/04/04 06:42:20;;;;;;;0.63;0.32;;;;;;;-139.19;100.00;56970.53;5054124;28;20216;-63
2024/04/04 06:44:45;;;;;;;1.08;0.55;;;;;;;-139.19;100.00;56970.53;5054076;28;20033;-63
2024/04/04 06:47:10;;;;;;;0.00;0.00;;;;;;;-139.19;100.00;56970.53;5053991;28;20036;-63
2024/04/04 06:49:36;;;;;;;0.00;0.00;;;;;;;-139.19;100.00;56970.53;5053512;28;20055;-63
2024/04/04 06:52:01;;;;;;;0.10;0.10;;;;;;;-139.19;100.00;56970.53;5053918;28;20104;-63
2024/04/04 06:54:27;;;;;;;0.25;0.10;;;;;;;-139.19;100.00;56970.53;5053874;28;20362;-63
2024/04/04 06:56:52;;;;;;;0.00;0.00;;;;;;;-139.19;100.00;56970.53;5053855;28;20120;-63
2024/04/04 06:59:17;;;;;;;0.10;0.10;;;;;;;-139.19;100.00;56970.53;5054046;28;20040;-63
2024/04/04 07:01:44;;;;;;;0.10;0.10;;;;;;;-139.19;100.00;56970.53;5053614;28;20028;-63
2024/04/04 07:04:09;;;;;;;3.20;1.08;;;;;;;-139.19;100.00;56970.53;5053582;28;20074;-63
2024/04/04 07:06:35;;;;;;;0.10;0.10;;;;;;;-139.19;100.00;56970.53;5053750;28;20119;-63
2024/04/04 07:09:00;;;;;;;0.22;0.22;;;;;;;-139.19;100.00;56970.53;5053616;28;20035;-63
2024/04/04 07:11:26;;;;;;;0.00;0.00;;;;;;;-139.19;100.00;56970.53;5053857;28;20107;-63
2024/04/04 07:13:52;;;;;;;0.00;0.00;;;;;;;-139.19;100.00;56970.53;5053402;28;20028;-63
2024/04/04 07:16:17;;;;;;;7.88;0.60;;;;;;;-139.19;100.00;56970.53;5053473;28;20033;-63
2024/04/04 07:18:42;;;;;;;1.75;0.43;;;;;;;-139.19;100.00;56970.53;5053263;28;20384;-63
2024/04/04 07:21:08;;;;;;;0.22;0.22;;;;;;;-139.19;100.00;56970.53;5053459;28;20040;-63
2024/04/04 07:23:34;;;;;;;0.00;0.00;;;;;;;-139.19;100.00;56970.53;5053683;28;20148;-63
2024/04/04 07:25:59;;;;;;;0.20;0.15;;;;;;;-139.19;100.00;56970.53;5053605;28;20078;-63
2024/04/04 07:28:25;;;;;;;0.10;0.10;;;;;;;-139.19;100.00;56970.53;5053417;28;20384;-63
2024/04/04 07:30:50;;;;;;;0.00;0.00;;;;;;;-139.19;100.00;56970.53;5053601;28;20090;-63
2024/04/04 07:33:16;;;;;;;0.38;0.28;;;;;;;-139.19;100.00;56970.53;5053201;28;20029;-63
2024/04/04 07:35:42;;;;;;;1.65;1.42;;;;;;;-139.19;100.00;56970.53;5053166;28;20069;-63
2024/04/04 07:38:08;;;;;;;0.10;0.10;;;;;;;-139.19;100.00;56970.53;5053448;28;20021;-63
2024/04/04 07:40:38;;;;;;;0.13;0.13;;;;;;;-139.19;100.00;56970.53;5053434;28;20392;-63
2024/04/04 07:43:04;;;;;;;0.28;0.28;;;;;;;-139.19;100.00;56970.53;5053382;28;20060;-63
2024/04/04 07:45:30;;;;;;;5.75;1.35;;;;;;;-139.19;100.00;56970.53;5053465;28;20021;-61
2024/04/04 07:47:56;;;;;;;0.10;0.10;;;;;;;-139.19;100.00;56970.53;5053352;28;20546;-62
2024/04/04 07:50:23;;;;;;;0.20;0.20;;;;;;;-139.19;100.00;56970.53;5053060;28;20103;-62
2024/04/04 07:52:49;;;;;;;0.00;0.00;;;;;;;-139.19;100.00;56970.53;5052993;28;20021;-61
2024/04/04 07:55:15;;;;;;;0.00;0.00;;;;;;;-139.19;100.00;56970.53;5053067;28;20468;-61
2024/04/04 07:57:41;;;;;;;0.32;0.32;;;;;;;-139.19;100.00;56970.53;5052933;28;20100;-61
2024/04/04 08:00:07;;;;;;;4.57;1.10;;;;;;;-139.19;100.00;56970.53;5053276;28;20107;-62
2024/04/04 08:02:33;;;;;;;0.28;0.28;;;;;;;-139.19;100.00;56970.53;5056955;28;20404;-61
2024/04/04 08:04:58;;;;;;;0.10;0.10;;;;;;;-139.19;100.00;56970.53;5056949;28;20125;-62
2024/04/04 08:07:24;;;;;;;0.10;0.10;;;;;;;-139.19;100.00;56970.53;5057310;28;20036;-62
2024/04/04 08:09:49;;;;;;;0.00;0.00;;;;;;;-139.19;100.00;56970.53;5057254;28;20392;-62
2024/04/04 08:12:14;;;;;;;2.10;0.85;;;;;;;-139.19;100.00;56970.53;5057088;28;20420;-61
2024/04/04 08:14:39;;;;;;;0.00;0.00;;;;;;;-139.19;100.00;56970.53;5057136;28;20461;-62
2024/04/04 08:17:05;;;;;;;0.22;0.22;;;;;;;-139.19;100.00;56970.53;5056884;28;20032;-62
2024/04/04 08:19:31;;;;;;;0.00;0.00;;;;;;;-139.19;100.00;56970.53;5056998;28;20021;-62
2024/04/04 08:21:56;;;;;;;0.10;0.10;;;;;;;-139.19;100.00;56970.53;5057009;28;20075;-61
2024/04/04 08:24:21;;;;;;;5.38;1.30;;;;;;;-139.19;100.00;56970.53;5056679;28;20016;-62
2024/04/04 08:26:47;;;;;;;0.10;0.10;;;;;;;-139.19;100.00;56970.53;5056648;28;20547;-62
2024/04/04 08:29:14;;;;;;;0.55;0.20;;;;;;;-139.19;100.00;56970.53;5056866;28;20079;-61
2024/04/04 08:31:40;;;;;;;1.75;1.05;;;;;;;-139.19;100.00;56970.53;5056839;28;20020;-61
2024/04/04 08:34:06;;;;;;;0.00;0.00;;;;;;;-139.19;100.00;56970.53;5056705;28;20108;-62
2024/04/04 08:36:31;;;;;;;0.47;0.35;;;;;;;-139.19;100.00;56970.53;5056510;28;20472;-62
2024/04/04 08:38:56;;;;;;;0.28;0.28;;;;;;;-139.19;100.00;56970.53;5056513;28;20024;-62
2024/04/04 08:41:23;;;;;;;4.85;0.52;;;;;;;-139.19;100.00;56970.53;5056388;28;20036;-61
2024/04/04 08:43:49;;;;;;;0.00;0.00;;;;;;;-139.19;100.00;56970.53;5056612;28;20151;-62
2024/04/04 08:46:15;;;;;;;0.00;0.00;;;;;;;-139.19;100.00;56970.53;5056561;28;20485;-62
2024/04/04 08:48:40;;;;;;;0.10;0.10;;;;;;;-139.19;100.00;56970.53;5056236;28;20047;-61
2024/04/04 08:51:07;;;;;;;0.00;0.00;;;;;;;-139.19;100.00;56970.53;5056339;28;20032;-62
2024/04/04 08:53:33;;;;;;;1.58;0.30;;;;;;;-139.19;100.00;56970.53;5056418;28;20060;-62
2024/04/04 08:55:59;;;;;;;1.90;0.57;;;;;;;-139.19;100.00;56970.53;5056199;28;20362;-61
2024/04/04 08:58:25;;;;;;;0.10;0.10;;;;;;;-139.19;100.00;56970.53;5048105;28;20029;-62
2024/04/04 09:00:51;;;;;;;0.10;0.10;;;;;;;-139.19;100.00;56970.53;5055992;28;20039;-62
2024/04/04 09:03:18;;;;;;;3.58;0.65;;;;;;;-139.19;100.00;56970.53;5055888;28;20053;-62
2024/04/04 09:05:45;;;;;;;0.10;0.10;;;;;;;-139.19;100.00;56970.53;5056148;28;20033;-62
2024/04/04 09:08:11;;;;;;;0.25;0.25;;;;;;;-139.19;100.00;56970.53;5055857;28;20032;-62
2024/04/04 09:10:37;;;;;;;0.00;0.00;;;;;;;-139.19;100.00;56970.53;5055863;28;20025;-62
2024/04/04 09:13:04;;;;;;;0.00;0.00;;;;;;;-139.19;100.00;56970.53;5055275;28;20064;-62
2024/04/04 09:15:30;;;;;;;0.73;0.55;;;;;;;-139.19;100.00;56970.53;5055978;28;20025;-62
2024/04/04 09:18:08;;;;;;;0.10;0.10;;;;;;;-139.19;100.00;56970.53;5055944;28;20025;-62
2024/04/04 09:20:36;;;;;;;0.00;0.00;;;;;;;-139.19;100.00;56970.53;5055674;28;20024;-62
2024/04/04 09:23:03;;;;;;;0.00;0.00;;;;;;;-139.19;100.00;56970.53;5055568;28;20076;-62
2024/04/04 09:25:30;;;;;;;0.17;0.17;;;;;;;-139.19;100.00;56970.53;5055827;28;20392;-62
2024/04/04 09:27:57;;;;;;;0.10;0.10;;;;;;;-139.19;100.00;56970.53;5055576;28;20452;-61
2024/04/04 09:30:24;;;;;;;0.40;0.30;;;;;;;-139.19;100.00;56970.53;5055402;28;20028;-62
2024/04/04 09:32:51;;;;;;;0.10;0.10;;;;;;;-139.19;100.00;56970.53;5055682;28;20061;-61
2024/04/04 09:35:18;;;;;;;0.28;0.28;;;;;;;-139.19;100.00;56970.53;5055600;28;20021;-62
2024/04/04 09:37:45;;;;;;;0.20;0.20;;;;;;;-139.19;100.00;56970.53;5055391;28;20078;-61
2024/04/04 09:40:12;;;;;;;0.00;0.00;;;;;;;-139.19;100.00;56970.53;5055456;28;20473;-62
2024/04/04 09:42:41;;;;;;;0.10;0.10;;;;;;;-139.19;100.00;56970.53;5055367;28;20425;-62
2024/04/04 09:45:08;;;;;;;0.00;0.00;;;;;;;-139.19;100.00;56970.53;5055112;28;20032;-62
2024/04/04 09:47:34;;;;;;;0.55;0.45;;;;;;;-139.19;100.00;56970.53;5055481;28;20481;-62
2024/04/04 09:50:03;;;;;;;0.08;0.08;;;;;;;-139.19;100.00;56970.53;5055215;28;20036;-62
2024/04/04 09:52:32;;;;;;;0.03;0.03;;;;;;;-139.19;100.00;56970.53;5054995;28;20021;-61
2024/04/04 09:54:58;;;;;;;0.20;0.20;;;;;;;-139.19;100.00;56970.53;5055255;28;20480;-62
2024/04/04 09:57:24;;;;;;;0.00;0.00;;;;;;;-139.19;100.00;56970.53;5054996;28;20040;-62
2024/04/04 10:00:13;;;;;;;0.10;0.10;;;;;;;-139.19;100.00;56970.53;5054933;28;20109;-62
2024/04/04 10:02:54;;;;;;;0.13;0.13;;;;;;;-139.19;100.00;56970.53;5054901;28;20448;-62
2024/04/04 10:05:21;;;;;;;3.72;1.55;;;;;;;-139.19;100.00;56970.53;5054730;28;20053;-61
2024/04/04 10:07:50;;;;;;;0.13;0.13;;;;;;;-139.19;100.00;56970.53;5054828;28;20104;-63
2024/04/04 10:10:19;;;;;;;0.00;0.00;;;;;;;-139.19;100.00;56970.53;5054678;28;20028;-63
2024/04/04 10:12:52;;;;;;;0.80;0.80;;;;;;;-139.19;100.00;56970.53;5054866;28;20021;-63
2024/04/04 10:15:19;;;;;;;0.10;0.10;;;;;;;-139.19;100.00;56970.53;5054667;28;20020;-63
2024/04/04 10:17:52;;;;;;;0.80;0.80;;;;;;;-139.19;100.00;56970.53;5054531;28;20048;-63
2024/04/04 10:20:21;;;;;;;0.10;0.10;;;;;;;-139.19;100.00;56970.53;5054761;28;20028;-63
2024/04/04 10:23:01;;;;;;;0.28;0.28;;;;;;;-139.19;100.00;56970.53;5054430;28;20055;-63
2024/04/04 10:25:26;;;;;;;0.00;0.00;;;;;;;-139.19;100.00;56970.53;5053606;28;20040;-63
2024/04/04 10:28:07;;;;;;;0.10;0.10;;;;;;;-139.19;100.00;56970.53;5054385;28;20025;-63
2024/04/04 10:30:39;;;;;;;0.00;0.00;;;;;;;-139.19;100.00;56970.53;5054133;28;20032;-63
2024/04/04 10:33:14;;;;;;;0.00;0.00;;;;;;;-139.19;100.00;56970.53;5054349;28;20469;-63
2024/04/04 10:35:39;;;;;;;0.28;0.28;;;;;;;-139.19;100.00;56970.53;5054119;28;20162;-63
2024/04/04 10:38:13;;;;;;;1.38;0.35;;;;;;;-139.19;100.00;56970.53;5054433;28;20056;-63
2024/04/04 10:40:38;;;;;;;1.65;1.05;;;;;;;-139.19;100.00;56970.53;5054171;28;20028;-63
2024/04/04 10:43:07;;;;;;;0.10;0.10;;;;;;;-139.19;100.00;56970.53;5054320;28;20380;-63
2024/04/04 10:45:33;;;;;;;4.75;1.52;;;;;;;-139.19;100.00;56970.53;5054052;28;20044;-63
2024/04/04 10:47:59;;;;;;;0.10;0.10;;;;;;;-139.19;100.00;56970.53;5054326;28;20074;-63
2024/04/04 10:50:26;;;;;;;0.00;0.00;;;;;;;-139.19;100.00;56970.53;5053988;28;20469;-63
2024/04/04 10:52:53;;;;;;;1.10;0.77;;;;;;;-139.19;100.00;56970.53;5054119;28;20491;-63
2024/04/04 10:55:19;;;;;;;0.60;0.45;;;;;;;-139.19;100.00;56970.53;5053856;28;20388;-63
2024/04/04 10:57:47;;;;;;;0.10;0.10;;;;;;;-139.19;100.00;56970.53;5053929;28;20112;-63
2024/04/04 11:00:13;;;;;;;0.00;0.00;;;;;;;-139.19;100.00;56970.53;5054077;28;20500;-63
2024/04/04 11:02:51;;;;;;;0.00;0.00;;;;;;;-139.19;100.00;56970.53;5053669;28;20045;-63
2024/04/04 11:05:17;;;;;;;0.88;0.52;;;;;;;-139.19;100.00;56970.53;5053658;28;20044;-63